sensor_id;sensor_type;location;lat;lon;timestamp;P1;durP1;ratioP1;P2;durP2;ratioP2
489;SDS011;231;48.120;11.576;2022-12-20T00:00:03;12.70;;;12.03;;
489;SDS011;231;48.120;11.576;2022-12-20T00:02:33;13.23;;;12.63;;
489;SDS011;231;48.120;11.576;2022-12-20T00:05:00;15.70;;;11.97;;
489;SDS011;231;48.120;11.576;2022-12-20T00:07:27;13.23;;;12.53;;
489;SDS011;231;48.120;11.576;2022-12-20T00:09:54;16.93;;;12.03;;
489;SDS011;231;48.120;11.576;2022-12-20T00:12:21;13.07;;;11.67;;
489;SDS011;231;48.120;11.576;2022-12-20T00:14:48;13.13;;;12.43;;
489;SDS011;231;48.120;11.576;2022-12-20T00:17:15;13.87;;;13.17;;
489;SDS011;231;48.120;11.576;2022-12-20T00:19:43;14.60;;;13.90;;
489;SDS011;231;48.120;11.576;2022-12-20T00:22:10;16.67;;;15.20;;
489;SDS011;231;48.120;11.576;2022-12-20T00:24:37;16.00;;;11.73;;
489;SDS011;231;48.120;11.576;2022-12-20T00:27:04;13.63;;;12.70;;
489;SDS011;231;48.120;11.576;2022-12-20T00:29:31;12.73;;;11.10;;
489;SDS011;231;48.120;11.576;2022-12-20T00:31:58;11.37;;;10.53;;
489;SDS011;231;48.120;11.576;2022-12-20T00:34:25;10.60;;;10.00;;
489;SDS011;231;48.120;11.576;2022-12-20T00:36:53;9.80;;;8.27;;
489;SDS011;231;48.120;11.576;2022-12-20T00:39:20;12.10;;;9.37;;
489;SDS011;231;48.120;11.576;2022-12-20T00:41:47;10.53;;;9.00;;
489;SDS011;231;48.120;11.576;2022-12-20T00:44:14;13.50;;;12.80;;
489;SDS011;231;48.120;11.576;2022-12-20T00:46:41;17.37;;;16.27;;
489;SDS011;231;48.120;11.576;2022-12-20T00:49:08;14.40;;;10.17;;
489;SDS011;231;48.120;11.576;2022-12-20T00:51:35;11.00;;;10.40;;
489;SDS011;231;48.120;11.576;2022-12-20T00:54:03;11.43;;;10.83;;
489;SDS011;231;48.120;11.576;2022-12-20T00:56:32;15.63;;;14.83;;
489;SDS011;231;48.120;11.576;2022-12-20T00:58:59;11.47;;;10.80;;
489;SDS011;231;48.120;11.576;2022-12-20T01:01:27;11.17;;;9.73;;
489;SDS011;231;48.120;11.576;2022-12-20T01:03:57;11.40;;;10.73;;
489;SDS011;231;48.120;11.576;2022-12-20T01:06:25;13.80;;;10.27;;
489;SDS011;231;48.120;11.576;2022-12-20T01:08:53;11.97;;;11.33;;
489;SDS011;231;48.120;11.576;2022-12-20T01:11:22;9.97;;;9.37;;
489;SDS011;231;48.120;11.576;2022-12-20T01:13:55;9.43;;;7.70;;
489;SDS011;231;48.120;11.576;2022-12-20T01:16:23;10.13;;;8.97;;
489;SDS011;231;48.120;11.576;2022-12-20T01:18:52;8.77;;;8.23;;
489;SDS011;231;48.120;11.576;2022-12-20T01:21:20;9.90;;;9.40;;
489;SDS011;231;48.120;11.576;2022-12-20T01:23:48;7.87;;;7.50;;
489;SDS011;231;48.120;11.576;2022-12-20T01:26:16;7.97;;;7.57;;
489;SDS011;231;48.120;11.576;2022-12-20T01:28:48;7.73;;;7.07;;
489;SDS011;231;48.120;11.576;2022-12-20T01:31:19;7.53;;;7.13;;
489;SDS011;231;48.120;11.576;2022-12-20T01:33:47;7.43;;;7.03;;
489;SDS011;231;48.120;11.576;2022-12-20T01:36:17;8.13;;;7.60;;
489;SDS011;231;48.120;11.576;2022-12-20T01:38:45;6.77;;;6.43;;
489;SDS011;231;48.120;11.576;2022-12-20T01:41:13;6.90;;;6.27;;
489;SDS011;231;48.120;11.576;2022-12-20T01:43:50;7.57;;;7.10;;
489;SDS011;231;48.120;11.576;2022-12-20T01:46:20;6.00;;;5.70;;
489;SDS011;231;48.120;11.576;2022-12-20T01:48:50;5.83;;;5.53;;
489;SDS011;231;48.120;11.576;2022-12-20T01:51:21;6.23;;;5.73;;
489;SDS011;231;48.120;11.576;2022-12-20T01:53:50;5.03;;;4.73;;
489;SDS011;231;48.120;11.576;2022-12-20T01:56:20;6.53;;;6.13;;
489;SDS011;231;48.120;11.576;2022-12-20T01:58:49;5.87;;;5.43;;
489;SDS011;231;48.120;11.576;2022-12-20T02:01:19;6.03;;;5.47;;
489;SDS011;231;48.120;11.576;2022-12-20T02:03:46;7.10;;;5.50;;
489;SDS011;231;48.120;11.576;2022-12-20T02:06:15;7.40;;;7.00;;
489;SDS011;231;48.120;11.576;2022-12-20T02:08:43;7.13;;;6.73;;
489;SDS011;231;48.120;11.576;2022-12-20T02:11:33;7.43;;;6.90;;
489;SDS011;231;48.120;11.576;2022-12-20T02:14:13;6.73;;;6.33;;
489;SDS011;231;48.120;11.576;2022-12-20T02:16:52;6.57;;;6.17;;
489;SDS011;231;48.120;11.576;2022-12-20T02:19:35;6.10;;;5.23;;
489;SDS011;231;48.120;11.576;2022-12-20T02:22:22;7.47;;;5.73;;
489;SDS011;231;48.120;11.576;2022-12-20T02:25:08;6.80;;;5.60;;
489;SDS011;231;48.120;11.576;2022-12-20T02:28:00;5.80;;;5.50;;
489;SDS011;231;48.120;11.576;2022-12-20T02:30:34;6.47;;;5.90;;
489;SDS011;231;48.120;11.576;2022-12-20T02:33:06;6.37;;;6.00;;
489;SDS011;231;48.120;11.576;2022-12-20T02:35:36;6.83;;;6.43;;
489;SDS011;231;48.120;11.576;2022-12-20T02:40:52;6.63;;;6.23;;
489;SDS011;231;48.120;11.576;2022-12-20T02:43:22;7.57;;;6.47;;
489;SDS011;231;48.120;11.576;2022-12-20T02:46:11;6.70;;;6.30;;
489;SDS011;231;48.120;11.576;2022-12-20T02:48:43;6.53;;;6.00;;
489;SDS011;231;48.120;11.576;2022-12-20T02:51:16;6.50;;;5.90;;
489;SDS011;231;48.120;11.576;2022-12-20T02:53:48;6.80;;;5.13;;
489;SDS011;231;48.120;11.576;2022-12-20T02:56:16;5.73;;;5.27;;
489;SDS011;231;48.120;11.576;2022-12-20T02:58:48;8.10;;;7.30;;
489;SDS011;231;48.120;11.576;2022-12-20T03:01:20;8.00;;;6.50;;
489;SDS011;231;48.120;11.576;2022-12-20T03:03:50;8.27;;;7.70;;
489;SDS011;231;48.120;11.576;2022-12-20T03:06:19;7.07;;;6.50;;
489;SDS011;231;48.120;11.576;2022-12-20T03:08:46;6.33;;;6.00;;
489;SDS011;231;48.120;11.576;2022-12-20T03:11:13;7.90;;;6.27;;
489;SDS011;231;48.120;11.576;2022-12-20T03:13:40;6.50;;;6.10;;
489;SDS011;231;48.120;11.576;2022-12-20T03:16:07;7.90;;;6.30;;
489;SDS011;231;48.120;11.576;2022-12-20T03:18:36;7.33;;;5.93;;
489;SDS011;231;48.120;11.576;2022-12-20T03:21:03;5.50;;;4.60;;
489;SDS011;231;48.120;11.576;2022-12-20T03:23:30;6.00;;;5.47;;
489;SDS011;231;48.120;11.576;2022-12-20T03:25:57;7.83;;;5.30;;
489;SDS011;231;48.120;11.576;2022-12-20T03:28:24;6.63;;;5.73;;
489;SDS011;231;48.120;11.576;2022-12-20T03:30:51;4.73;;;4.43;;
489;SDS011;231;48.120;11.576;2022-12-20T03:33:18;5.23;;;4.80;;
489;SDS011;231;48.120;11.576;2022-12-20T03:35:47;5.80;;;5.50;;
489;SDS011;231;48.120;11.576;2022-12-20T03:38:17;6.80;;;5.63;;
489;SDS011;231;48.120;11.576;2022-12-20T03:40:44;8.13;;;5.30;;
489;SDS011;231;48.120;11.576;2022-12-20T03:43:11;9.50;;;8.27;;
489;SDS011;231;48.120;11.576;2022-12-20T03:45:38;10.23;;;7.80;;
489;SDS011;231;48.120;11.576;2022-12-20T03:48:05;8.80;;;7.80;;
489;SDS011;231;48.120;11.576;2022-12-20T03:50:33;8.50;;;7.63;;
489;SDS011;231;48.120;11.576;2022-12-20T03:53:02;9.90;;;7.57;;
489;SDS011;231;48.120;11.576;2022-12-20T03:55:29;7.00;;;6.50;;
489;SDS011;231;48.120;11.576;2022-12-20T03:57:56;6.30;;;4.93;;
489;SDS011;231;48.120;11.576;2022-12-20T04:00:23;5.27;;;4.87;;
489;SDS011;231;48.120;11.576;2022-12-20T04:02:50;7.30;;;6.20;;
489;SDS011;231;48.120;11.576;2022-12-20T04:05:17;6.00;;;4.50;;
489;SDS011;231;48.120;11.576;2022-12-20T04:07:45;6.10;;;5.50;;
489;SDS011;231;48.120;11.576;2022-12-20T04:10:13;8.47;;;5.57;;
489;SDS011;231;48.120;11.576;2022-12-20T04:12:40;5.40;;;5.07;;
489;SDS011;231;48.120;11.576;2022-12-20T04:15:07;5.53;;;4.73;;
489;SDS011;231;48.120;11.576;2022-12-20T04:17:35;7.13;;;6.10;;
489;SDS011;231;48.120;11.576;2022-12-20T04:20:02;5.20;;;3.90;;
489;SDS011;231;48.120;11.576;2022-12-20T04:22:43;4.47;;;4.00;;
489;SDS011;231;48.120;11.576;2022-12-20T04:25:10;9.50;;;4.70;;
489;SDS011;231;48.120;11.576;2022-12-20T04:27:38;5.73;;;5.43;;
489;SDS011;231;48.120;11.576;2022-12-20T04:30:06;3.70;;;3.53;;
489;SDS011;231;48.120;11.576;2022-12-20T04:32:33;7.03;;;4.50;;
489;SDS011;231;48.120;11.576;2022-12-20T04:35:00;4.40;;;4.13;;
489;SDS011;231;48.120;11.576;2022-12-20T04:37:28;14.30;;;13.30;;
489;SDS011;231;48.120;11.576;2022-12-20T04:39:55;8.17;;;7.40;;
489;SDS011;231;48.120;11.576;2022-12-20T04:42:22;7.13;;;5.97;;
489;SDS011;231;48.120;11.576;2022-12-20T04:44:51;9.47;;;6.20;;
489;SDS011;231;48.120;11.576;2022-12-20T04:47:18;8.90;;;6.00;;
489;SDS011;231;48.120;11.576;2022-12-20T04:49:45;5.93;;;4.43;;
489;SDS011;231;48.120;11.576;2022-12-20T04:52:12;9.13;;;4.50;;
489;SDS011;231;48.120;11.576;2022-12-20T04:54:53;6.80;;;6.40;;
489;SDS011;231;48.120;11.576;2022-12-20T04:57:19;5.50;;;5.20;;
489;SDS011;231;48.120;11.576;2022-12-20T04:59:46;6.40;;;5.90;;
489;SDS011;231;48.120;11.576;2022-12-20T05:02:14;7.33;;;5.40;;
489;SDS011;231;48.120;11.576;2022-12-20T05:04:41;7.03;;;6.00;;
489;SDS011;231;48.120;11.576;2022-12-20T05:07:08;5.27;;;4.93;;
489;SDS011;231;48.120;11.576;2022-12-20T05:09:35;5.60;;;4.67;;
489;SDS011;231;48.120;11.576;2022-12-20T05:12:02;5.60;;;5.03;;
489;SDS011;231;48.120;11.576;2022-12-20T05:14:29;4.00;;;3.80;;
489;SDS011;231;48.120;11.576;2022-12-20T05:16:56;7.63;;;5.10;;
489;SDS011;231;48.120;11.576;2022-12-20T05:19:25;5.27;;;4.60;;
489;SDS011;231;48.120;11.576;2022-12-20T05:21:51;6.83;;;5.53;;
489;SDS011;231;48.120;11.576;2022-12-20T05:24:35;4.83;;;4.53;;
489;SDS011;231;48.120;11.576;2022-12-20T05:27:20;4.73;;;4.50;;
489;SDS011;231;48.120;11.576;2022-12-20T05:29:46;6.40;;;5.50;;
489;SDS011;231;48.120;11.576;2022-12-20T05:32:13;6.10;;;4.33;;
489;SDS011;231;48.120;11.576;2022-12-20T05:34:42;5.00;;;4.47;;
489;SDS011;231;48.120;11.576;2022-12-20T05:37:08;5.47;;;5.17;;
489;SDS011;231;48.120;11.576;2022-12-20T05:39:35;5.53;;;5.10;;
489;SDS011;231;48.120;11.576;2022-12-20T05:42:02;5.60;;;4.07;;
489;SDS011;231;48.120;11.576;2022-12-20T05:44:29;5.53;;;3.90;;
489;SDS011;231;48.120;11.576;2022-12-20T05:46:56;4.93;;;4.50;;
489;SDS011;231;48.120;11.576;2022-12-20T05:49:23;4.07;;;3.87;;
489;SDS011;231;48.120;11.576;2022-12-20T05:51:52;4.70;;;3.90;;
489;SDS011;231;48.120;11.576;2022-12-20T05:54:19;5.40;;;4.90;;
489;SDS011;231;48.120;11.576;2022-12-20T05:56:46;7.13;;;4.40;;
489;SDS011;231;48.120;11.576;2022-12-20T05:59:13;6.00;;;5.17;;
489;SDS011;231;48.120;11.576;2022-12-20T06:01:41;4.17;;;3.93;;
489;SDS011;231;48.120;11.576;2022-12-20T06:04:08;4.30;;;4.03;;
489;SDS011;231;48.120;11.576;2022-12-20T06:06:35;9.20;;;4.50;;
489;SDS011;231;48.120;11.576;2022-12-20T06:09:03;4.67;;;4.37;;
489;SDS011;231;48.120;11.576;2022-12-20T06:11:30;5.93;;;4.83;;
489;SDS011;231;48.120;11.576;2022-12-20T06:13:57;5.10;;;4.80;;
489;SDS011;231;48.120;11.576;2022-12-20T06:16:24;7.90;;;5.77;;
489;SDS011;231;48.120;11.576;2022-12-20T06:18:51;4.60;;;4.30;;
489;SDS011;231;48.120;11.576;2022-12-20T06:21:18;6.43;;;5.60;;
489;SDS011;231;48.120;11.576;2022-12-20T06:23:45;5.17;;;4.87;;
489;SDS011;231;48.120;11.576;2022-12-20T06:26:13;8.40;;;6.93;;
489;SDS011;231;48.120;11.576;2022-12-20T06:28:40;7.03;;;6.07;;
489;SDS011;231;48.120;11.576;2022-12-20T06:31:07;6.00;;;5.50;;
489;SDS011;231;48.120;11.576;2022-12-20T06:33:35;6.90;;;5.50;;
489;SDS011;231;48.120;11.576;2022-12-20T06:36:03;6.87;;;6.47;;
489;SDS011;231;48.120;11.576;2022-12-20T06:38:30;7.40;;;6.20;;
489;SDS011;231;48.120;11.576;2022-12-20T06:40:57;5.20;;;4.90;;
489;SDS011;231;48.120;11.576;2022-12-20T06:43:25;5.67;;;4.70;;
489;SDS011;231;48.120;11.576;2022-12-20T06:45:53;6.73;;;5.50;;
489;SDS011;231;48.120;11.576;2022-12-20T06:48:20;4.90;;;4.60;;
489;SDS011;231;48.120;11.576;2022-12-20T06:50:47;5.00;;;4.33;;
489;SDS011;231;48.120;11.576;2022-12-20T06:53:13;4.60;;;4.20;;
489;SDS011;231;48.120;11.576;2022-12-20T06:55:40;12.80;;;7.73;;
489;SDS011;231;48.120;11.576;2022-12-20T06:58:07;11.03;;;6.90;;
489;SDS011;231;48.120;11.576;2022-12-20T07:00:36;9.30;;;6.60;;
489;SDS011;231;48.120;11.576;2022-12-20T07:03:03;5.00;;;4.70;;
489;SDS011;231;48.120;11.576;2022-12-20T07:05:30;4.67;;;4.20;;
489;SDS011;231;48.120;11.576;2022-12-20T07:07:57;5.87;;;4.77;;
489;SDS011;231;48.120;11.576;2022-12-20T07:10:23;8.03;;;6.20;;
489;SDS011;231;48.120;11.576;2022-12-20T07:12:51;6.80;;;5.03;;
489;SDS011;231;48.120;11.576;2022-12-20T07:15:18;8.07;;;5.80;;
489;SDS011;231;48.120;11.576;2022-12-20T07:17:47;10.37;;;7.50;;
489;SDS011;231;48.120;11.576;2022-12-20T07:20:15;9.77;;;6.43;;
489;SDS011;231;48.120;11.576;2022-12-20T07:22:42;6.77;;;6.37;;
489;SDS011;231;48.120;11.576;2022-12-20T07:25:12;7.70;;;6.47;;
489;SDS011;231;48.120;11.576;2022-12-20T07:27:39;10.00;;;7.00;;
489;SDS011;231;48.120;11.576;2022-12-20T07:30:06;8.97;;;5.10;;
489;SDS011;231;48.120;11.576;2022-12-20T07:32:34;6.50;;;6.10;;
489;SDS011;231;48.120;11.576;2022-12-20T07:35:02;8.43;;;6.37;;
489;SDS011;231;48.120;11.576;2022-12-20T07:37:29;14.47;;;7.93;;
489;SDS011;231;48.120;11.576;2022-12-20T07:39:56;9.03;;;6.90;;
489;SDS011;231;48.120;11.576;2022-12-20T07:42:23;8.80;;;6.07;;
489;SDS011;231;48.120;11.576;2022-12-20T07:44:50;5.57;;;5.27;;
489;SDS011;231;48.120;11.576;2022-12-20T07:47:17;6.27;;;4.97;;
489;SDS011;231;48.120;11.576;2022-12-20T07:49:44;7.33;;;5.30;;
489;SDS011;231;48.120;11.576;2022-12-20T07:52:14;6.17;;;5.90;;
489;SDS011;231;48.120;11.576;2022-12-20T07:54:45;6.43;;;5.90;;
489;SDS011;231;48.120;11.576;2022-12-20T07:57:16;7.97;;;5.63;;
489;SDS011;231;48.120;11.576;2022-12-20T07:59:48;5.40;;;5.00;;
489;SDS011;231;48.120;11.576;2022-12-20T08:02:17;6.77;;;4.87;;
489;SDS011;231;48.120;11.576;2022-12-20T08:04:47;4.50;;;4.20;;
489;SDS011;231;48.120;11.576;2022-12-20T08:07:16;6.43;;;4.70;;
489;SDS011;231;48.120;11.576;2022-12-20T08:09:50;9.10;;;5.83;;
489;SDS011;231;48.120;11.576;2022-12-20T08:12:17;5.23;;;4.90;;
489;SDS011;231;48.120;11.576;2022-12-20T08:14:45;5.50;;;5.20;;
489;SDS011;231;48.120;11.576;2022-12-20T08:17:12;7.70;;;6.03;;
489;SDS011;231;48.120;11.576;2022-12-20T08:19:39;10.30;;;6.50;;
489;SDS011;231;48.120;11.576;2022-12-20T08:22:06;7.60;;;5.60;;
489;SDS011;231;48.120;11.576;2022-12-20T08:24:35;7.20;;;6.30;;
489;SDS011;231;48.120;11.576;2022-12-20T08:27:05;8.97;;;6.77;;
489;SDS011;231;48.120;11.576;2022-12-20T08:29:33;9.20;;;5.77;;
489;SDS011;231;48.120;11.576;2022-12-20T08:32:00;6.77;;;5.50;;
489;SDS011;231;48.120;11.576;2022-12-20T08:34:27;6.93;;;5.87;;
489;SDS011;231;48.120;11.576;2022-12-20T08:36:54;6.30;;;4.83;;
489;SDS011;231;48.120;11.576;2022-12-20T08:39:21;6.40;;;5.90;;
489;SDS011;231;48.120;11.576;2022-12-20T08:41:49;9.37;;;5.83;;
489;SDS011;231;48.120;11.576;2022-12-20T08:44:16;7.63;;;6.10;;
489;SDS011;231;48.120;11.576;2022-12-20T08:46:43;6.33;;;5.97;;
489;SDS011;231;48.120;11.576;2022-12-20T08:49:10;8.47;;;6.43;;
489;SDS011;231;48.120;11.576;2022-12-20T08:51:38;15.10;;;8.10;;
489;SDS011;231;48.120;11.576;2022-12-20T08:54:04;7.77;;;7.37;;
489;SDS011;231;48.120;11.576;2022-12-20T08:56:32;9.17;;;7.10;;
489;SDS011;231;48.120;11.576;2022-12-20T08:59:00;8.07;;;7.37;;
489;SDS011;231;48.120;11.576;2022-12-20T09:01:28;18.00;;;15.30;;
489;SDS011;231;48.120;11.576;2022-12-20T09:03:57;14.80;;;11.40;;
489;SDS011;231;48.120;11.576;2022-12-20T09:06:25;9.37;;;7.07;;
489;SDS011;231;48.120;11.576;2022-12-20T09:08:52;11.93;;;6.63;;
489;SDS011;231;48.120;11.576;2022-12-20T09:11:20;9.50;;;6.43;;
489;SDS011;231;48.120;11.576;2022-12-20T09:13:50;10.83;;;7.10;;
489;SDS011;231;48.120;11.576;2022-12-20T09:16:21;5.83;;;5.50;;
489;SDS011;231;48.120;11.576;2022-12-20T09:18:50;8.07;;;5.20;;
489;SDS011;231;48.120;11.576;2022-12-20T09:21:18;7.53;;;6.00;;
489;SDS011;231;48.120;11.576;2022-12-20T09:23:45;6.90;;;6.13;;
489;SDS011;231;48.120;11.576;2022-12-20T09:26:15;6.60;;;5.67;;
489;SDS011;231;48.120;11.576;2022-12-20T09:28:43;7.43;;;4.97;;
489;SDS011;231;48.120;11.576;2022-12-20T09:31:10;5.73;;;5.43;;
489;SDS011;231;48.120;11.576;2022-12-20T09:33:40;6.37;;;5.90;;
489;SDS011;231;48.120;11.576;2022-12-20T09:36:09;6.83;;;5.47;;
489;SDS011;231;48.120;11.576;2022-12-20T09:38:36;8.60;;;5.80;;
489;SDS011;231;48.120;11.576;2022-12-20T09:41:04;6.93;;;3.90;;
489;SDS011;231;48.120;11.576;2022-12-20T09:43:33;9.97;;;5.03;;
489;SDS011;231;48.120;11.576;2022-12-20T09:46:02;7.10;;;4.90;;
489;SDS011;231;48.120;11.576;2022-12-20T09:48:30;4.87;;;4.60;;
489;SDS011;231;48.120;11.576;2022-12-20T09:51:04;15.70;;;6.23;;
489;SDS011;231;48.120;11.576;2022-12-20T09:53:36;6.93;;;5.10;;
489;SDS011;231;48.120;11.576;2022-12-20T09:56:15;5.50;;;5.07;;
489;SDS011;231;48.120;11.576;2022-12-20T09:58:59;6.90;;;5.10;;
489;SDS011;231;48.120;11.576;2022-12-20T10:01:29;5.97;;;5.07;;
489;SDS011;231;48.120;11.576;2022-12-20T10:03:58;5.17;;;4.17;;
489;SDS011;231;48.120;11.576;2022-12-20T10:06:34;27.27;;;25.93;;
489;SDS011;231;48.120;11.576;2022-12-20T10:09:11;7.40;;;6.60;;
489;SDS011;231;48.120;11.576;2022-12-20T10:11:58;10.10;;;7.00;;
489;SDS011;231;48.120;11.576;2022-12-20T10:14:42;5.83;;;5.07;;
489;SDS011;231;48.120;11.576;2022-12-20T10:17:16;10.57;;;5.50;;
489;SDS011;231;48.120;11.576;2022-12-20T10:23:03;9.90;;;7.53;;
489;SDS011;231;48.120;11.576;2022-12-20T10:25:34;8.13;;;6.70;;
489;SDS011;231;48.120;11.576;2022-12-20T10:28:01;5.90;;;5.40;;
489;SDS011;231;48.120;11.576;2022-12-20T10:30:31;7.37;;;6.47;;
489;SDS011;231;48.120;11.576;2022-12-20T10:32:59;8.30;;;6.30;;
489;SDS011;231;48.120;11.576;2022-12-20T10:35:27;9.17;;;6.77;;
489;SDS011;231;48.120;11.576;2022-12-20T10:37:57;8.63;;;6.87;;
489;SDS011;231;48.120;11.576;2022-12-20T10:40:29;7.23;;;4.97;;
489;SDS011;231;48.120;11.576;2022-12-20T10:42:58;9.70;;;6.63;;
489;SDS011;231;48.120;11.576;2022-12-20T10:45:27;8.80;;;6.30;;
489;SDS011;231;48.120;11.576;2022-12-20T10:48:00;7.87;;;6.13;;
489;SDS011;231;48.120;11.576;2022-12-20T10:50:29;9.33;;;7.03;;
489;SDS011;231;48.120;11.576;2022-12-20T10:55:50;7.60;;;6.93;;
489;SDS011;231;48.120;11.576;2022-12-20T10:58:28;8.10;;;6.10;;
489;SDS011;231;48.120;11.576;2022-12-20T11:01:03;8.37;;;6.10;;
489;SDS011;231;48.120;11.576;2022-12-20T11:03:32;6.50;;;5.30;;
489;SDS011;231;48.120;11.576;2022-12-20T11:06:00;9.10;;;7.00;;
489;SDS011;231;48.120;11.576;2022-12-20T11:08:29;9.13;;;8.60;;
489;SDS011;231;48.120;11.576;2022-12-20T11:11:10;8.83;;;6.83;;
489;SDS011;231;48.120;11.576;2022-12-20T11:13:40;7.13;;;5.67;;
489;SDS011;231;48.120;11.576;2022-12-20T11:16:21;7.60;;;5.43;;
489;SDS011;231;48.120;11.576;2022-12-20T11:19:01;6.90;;;6.50;;
489;SDS011;231;48.120;11.576;2022-12-20T11:21:37;7.03;;;6.57;;
489;SDS011;231;48.120;11.576;2022-12-20T11:24:10;7.90;;;6.43;;
489;SDS011;231;48.120;11.576;2022-12-20T11:26:49;7.67;;;6.50;;
489;SDS011;231;48.120;11.576;2022-12-20T11:29:35;7.43;;;7.07;;
489;SDS011;231;48.120;11.576;2022-12-20T11:32:27;7.57;;;6.20;;
489;SDS011;231;48.120;11.576;2022-12-20T11:35:08;10.57;;;6.63;;
489;SDS011;231;48.120;11.576;2022-12-20T11:37:41;7.67;;;5.93;;
489;SDS011;231;48.120;11.576;2022-12-20T11:40:19;9.10;;;6.77;;
489;SDS011;231;48.120;11.576;2022-12-20T11:42:59;7.20;;;6.77;;
489;SDS011;231;48.120;11.576;2022-12-20T11:45:36;14.10;;;6.20;;
489;SDS011;231;48.120;11.576;2022-12-20T11:48:18;9.97;;;6.90;;
489;SDS011;231;48.120;11.576;2022-12-20T11:51:03;7.73;;;6.90;;
489;SDS011;231;48.120;11.576;2022-12-20T11:53:35;17.33;;;16.10;;
489;SDS011;231;48.120;11.576;2022-12-20T11:56:06;8.10;;;5.83;;
489;SDS011;231;48.120;11.576;2022-12-20T11:58:49;8.60;;;6.33;;
489;SDS011;231;48.120;11.576;2022-12-20T12:01:19;9.67;;;6.80;;
489;SDS011;231;48.120;11.576;2022-12-20T12:03:53;7.77;;;5.87;;
489;SDS011;231;48.120;11.576;2022-12-20T12:06:30;6.47;;;4.90;;
489;SDS011;231;48.120;11.576;2022-12-20T12:09:04;5.93;;;5.63;;
489;SDS011;231;48.120;11.576;2022-12-20T12:11:42;5.87;;;4.60;;
489;SDS011;231;48.120;11.576;2022-12-20T12:14:27;8.10;;;5.90;;
489;SDS011;231;48.120;11.576;2022-12-20T12:16:57;6.50;;;6.10;;
489;SDS011;231;48.120;11.576;2022-12-20T12:19:33;8.47;;;5.90;;
489;SDS011;231;48.120;11.576;2022-12-20T12:22:06;7.70;;;5.03;;
489;SDS011;231;48.120;11.576;2022-12-20T12:24:39;7.07;;;5.73;;
489;SDS011;231;48.120;11.576;2022-12-20T12:27:12;5.30;;;5.00;;
489;SDS011;231;48.120;11.576;2022-12-20T12:29:46;39.57;;;30.50;;
489;SDS011;231;48.120;11.576;2022-12-20T12:32:18;81.00;;;47.93;;
489;SDS011;231;48.120;11.576;2022-12-20T12:34:53;158.63;;;92.20;;
489;SDS011;231;48.120;11.576;2022-12-20T12:37:36;73.13;;;51.23;;
489;SDS011;231;48.120;11.576;2022-12-20T12:40:29;31.50;;;24.00;;
489;SDS011;231;48.120;11.576;2022-12-20T12:43:10;39.80;;;31.27;;
489;SDS011;231;48.120;11.576;2022-12-20T12:45:55;11.80;;;9.77;;
489;SDS011;231;48.120;11.576;2022-12-20T12:48:25;41.00;;;32.87;;
489;SDS011;231;48.120;11.576;2022-12-20T12:51:00;16.87;;;13.37;;
489;SDS011;231;48.120;11.576;2022-12-20T12:53:30;7.40;;;6.50;;
489;SDS011;231;48.120;11.576;2022-12-20T12:59:07;9.23;;;6.43;;
489;SDS011;231;48.120;11.576;2022-12-20T13:01:48;8.00;;;5.10;;
489;SDS011;231;48.120;11.576;2022-12-20T13:04:25;8.37;;;6.80;;
489;SDS011;231;48.120;11.576;2022-12-20T13:06:55;11.10;;;5.47;;
489;SDS011;231;48.120;11.576;2022-12-20T13:09:36;6.83;;;6.03;;
489;SDS011;231;48.120;11.576;2022-12-20T13:18:30;18.23;;;12.90;;
489;SDS011;231;48.120;11.576;2022-12-20T13:27:00;9.80;;;6.17;;
489;SDS011;231;48.120;11.576;2022-12-20T13:29:32;6.70;;;6.03;;
489;SDS011;231;48.120;11.576;2022-12-20T13:32:00;7.37;;;6.60;;
489;SDS011;231;48.120;11.576;2022-12-20T13:34:36;8.73;;;6.67;;
489;SDS011;231;48.120;11.576;2022-12-20T13:39:50;12.57;;;9.30;;
489;SDS011;231;48.120;11.576;2022-12-20T13:42:21;8.73;;;8.07;;
489;SDS011;231;48.120;11.576;2022-12-20T13:45:00;9.83;;;7.73;;
489;SDS011;231;48.120;11.576;2022-12-20T13:47:39;8.43;;;6.60;;
489;SDS011;231;48.120;11.576;2022-12-20T13:50:22;7.43;;;6.17;;
489;SDS011;231;48.120;11.576;2022-12-20T13:52:55;6.50;;;6.00;;
489;SDS011;231;48.120;11.576;2022-12-20T13:55:24;7.90;;;5.80;;
489;SDS011;231;48.120;11.576;2022-12-20T13:57:56;11.77;;;7.70;;
489;SDS011;231;48.120;11.576;2022-12-20T14:00:28;8.37;;;7.00;;
489;SDS011;231;48.120;11.576;2022-12-20T14:02:56;6.40;;;6.03;;
489;SDS011;231;48.120;11.576;2022-12-20T14:05:24;7.13;;;5.83;;
489;SDS011;231;48.120;11.576;2022-12-20T14:07:57;29.43;;;23.80;;
489;SDS011;231;48.120;11.576;2022-12-20T14:10:26;11.17;;;9.33;;
489;SDS011;231;48.120;11.576;2022-12-20T14:12:54;10.23;;;9.23;;
489;SDS011;231;48.120;11.576;2022-12-20T14:15:23;10.23;;;8.63;;
489;SDS011;231;48.120;11.576;2022-12-20T14:17:54;14.67;;;9.47;;
489;SDS011;231;48.120;11.576;2022-12-20T14:20:27;7.67;;;7.27;;
489;SDS011;231;48.120;11.576;2022-12-20T14:22:56;9.37;;;7.13;;
489;SDS011;231;48.120;11.576;2022-12-20T14:25:28;10.00;;;7.70;;
489;SDS011;231;48.120;11.576;2022-12-20T14:27:59;7.50;;;7.13;;
489;SDS011;231;48.120;11.576;2022-12-20T14:30:28;9.70;;;7.30;;
489;SDS011;231;48.120;11.576;2022-12-20T14:32:57;15.47;;;11.13;;
489;SDS011;231;48.120;11.576;2022-12-20T14:35:24;9.40;;;8.90;;
489;SDS011;231;48.120;11.576;2022-12-20T14:37:54;10.73;;;9.83;;
489;SDS011;231;48.120;11.576;2022-12-20T14:40:23;10.80;;;8.00;;
489;SDS011;231;48.120;11.576;2022-12-20T14:42:50;10.87;;;8.10;;
489;SDS011;231;48.120;11.576;2022-12-20T14:45:19;9.07;;;8.57;;
489;SDS011;231;48.120;11.576;2022-12-20T14:47:49;11.57;;;8.90;;
489;SDS011;231;48.120;11.576;2022-12-20T14:50:26;12.57;;;9.23;;
489;SDS011;231;48.120;11.576;2022-12-20T14:52:56;13.77;;;9.73;;
489;SDS011;231;48.120;11.576;2022-12-20T14:55:25;11.20;;;9.30;;
489;SDS011;231;48.120;11.576;2022-12-20T14:57:57;16.53;;;10.43;;
489;SDS011;231;48.120;11.576;2022-12-20T15:00:25;14.30;;;10.63;;
489;SDS011;231;48.120;11.576;2022-12-20T15:02:57;15.57;;;11.37;;
489;SDS011;231;48.120;11.576;2022-12-20T15:05:35;12.90;;;10.33;;
489;SDS011;231;48.120;11.576;2022-12-20T15:08:10;14.13;;;10.13;;
489;SDS011;231;48.120;11.576;2022-12-20T15:10:38;11.27;;;10.00;;
489;SDS011;231;48.120;11.576;2022-12-20T15:13:09;11.43;;;9.67;;
489;SDS011;231;48.120;11.576;2022-12-20T15:15:38;11.03;;;9.63;;
489;SDS011;231;48.120;11.576;2022-12-20T15:18:08;11.53;;;10.57;;
489;SDS011;231;48.120;11.576;2022-12-20T15:20:39;9.63;;;8.80;;
489;SDS011;231;48.120;11.576;2022-12-20T15:23:11;10.80;;;9.67;;
489;SDS011;231;48.120;11.576;2022-12-20T15:25:40;14.93;;;9.43;;
489;SDS011;231;48.120;11.576;2022-12-20T15:28:12;12.70;;;9.93;;
489;SDS011;231;48.120;11.576;2022-12-20T15:30:40;10.40;;;9.30;;
489;SDS011;231;48.120;11.576;2022-12-20T15:33:09;10.37;;;8.73;;
489;SDS011;231;48.120;11.576;2022-12-20T15:35:42;11.40;;;9.10;;
489;SDS011;231;48.120;11.576;2022-12-20T15:38:14;9.33;;;8.23;;
489;SDS011;231;48.120;11.576;2022-12-20T15:40:43;8.70;;;8.20;;
489;SDS011;231;48.120;11.576;2022-12-20T15:43:11;15.70;;;14.90;;
489;SDS011;231;48.120;11.576;2022-12-20T15:45:40;11.60;;;10.30;;
489;SDS011;231;48.120;11.576;2022-12-20T15:48:12;10.30;;;8.47;;
489;SDS011;231;48.120;11.576;2022-12-20T15:50:43;7.90;;;7.50;;
489;SDS011;231;48.120;11.576;2022-12-20T15:53:15;10.13;;;9.50;;
489;SDS011;231;48.120;11.576;2022-12-20T15:55:46;11.67;;;9.77;;
489;SDS011;231;48.120;11.576;2022-12-20T15:58:14;10.60;;;9.37;;
489;SDS011;231;48.120;11.576;2022-12-20T16:00:41;10.67;;;8.97;;
489;SDS011;231;48.120;11.576;2022-12-20T16:03:16;26.23;;;17.30;;
489;SDS011;231;48.120;11.576;2022-12-20T16:05:46;12.93;;;12.27;;
489;SDS011;231;48.120;11.576;2022-12-20T16:08:15;12.57;;;9.10;;
489;SDS011;231;48.120;11.576;2022-12-20T16:10:43;11.33;;;9.33;;